createdAt,value
2023-05-02T00:03:34.544Z,100795.28
2023-05-02T00:08:37.324Z,100801.28
2023-05-02T00:13:41.459Z,100818.00
2023-05-02T00:18:44.190Z,100826.50
2023-05-02T00:23:46.864Z,100841.56
2023-05-02T00:28:50.862Z,100815.56
2023-05-02T00:33:53.586Z,100792.53
2023-05-02T00:38:56.257Z,100812.63
2023-05-02T00:44:00.745Z,100872.97
2023-05-02T00:49:03.401Z,100893.81
2023-05-02T00:54:07.030Z,100904.88
2023-05-02T00:59:11.989Z,100925.78
2023-05-02T01:04:24.530Z,100952.19
2023-05-02T01:09:37.977Z,100998.44
2023-05-02T01:14:43.768Z,101052.53
2023-05-02T01:19:51.138Z,101089.50
2023-05-02T01:25:02.841Z,101115.59
2023-05-02T01:30:08.376Z,101141.56
2023-05-02T01:35:12.506Z,101182.72
2023-05-02T01:40:17.528Z,101220.44
2023-05-02T01:45:22.744Z,101251.13
2023-05-02T01:50:27.674Z,101279.69
2023-05-02T01:55:30.563Z,101316.69
2023-05-02T02:00:35.753Z,101350.28
2023-05-02T02:05:38.982Z,101372.03
2023-05-02T02:10:42.612Z,101406.69
2023-05-02T02:15:49.084Z,101436.94
2023-05-02T02:20:53.526Z,101455.88
2023-05-02T02:25:58.469Z,101490.13
2023-05-02T02:31:02.902Z,101531.06
2023-05-02T02:36:09.987Z,101564.25
2023-05-02T02:41:15.888Z,101595.56
2023-05-02T02:46:29.289Z,101631.34
2023-05-02T02:51:35.602Z,101665.38
2023-05-02T02:56:40.696Z,101705.59
2023-05-02T03:01:46.654Z,101728.56
2023-05-02T03:06:49.989Z,101764.19
2023-05-02T03:11:53.366Z,101797.06
2023-05-02T03:16:57.478Z,101822.63
2023-05-02T03:22:00.327Z,101855.72
2023-05-02T03:27:03.188Z,101891.97
2023-05-02T03:32:12.398Z,101899.09
2023-05-02T03:37:17.330Z,101921.75
2023-05-02T03:42:20.122Z,101961.78
2023-05-02T03:47:24.591Z,101997.06
2023-05-02T03:52:28.432Z,102034.00
2023-05-02T03:57:31.325Z,102073.16
2023-05-02T04:02:36.339Z,102108.47
2023-05-02T04:07:39.626Z,102132.34
2023-05-02T04:12:43.317Z,102195.38
2023-05-02T04:17:48.464Z,102244.16
2023-05-02T04:22:52.021Z,102300.25
2023-05-02T04:27:54.793Z,102345.13
2023-05-02T04:33:00.906Z,102420.88
2023-05-02T04:38:08.329Z,102443.28
2023-05-02T04:43:11.910Z,102532.47
2023-05-02T04:48:21.618Z,102590.63
2023-05-02T04:53:24.473Z,102653.44
2023-05-02T04:58:27.274Z,102716.41
2023-05-02T05:03:37.152Z,102792.94
2023-05-02T05:08:41.437Z,102900.91
2023-05-02T05:13:44.251Z,102943.28
2023-05-02T05:18:50.190Z,103031.06
2023-05-02T05:23:52.956Z,103139.16
2023-05-02T05:29:00.630Z,103194.44
2023-05-02T05:34:09.984Z,103299.28
2023-05-02T05:39:13.143Z,103393.34
2023-05-02T05:44:18.325Z,103452.44
2023-05-02T05:49:24.199Z,103609.84
2023-05-02T05:54:27.141Z,103721.28
2023-05-02T05:59:29.891Z,103826.94
2023-05-02T06:04:34.174Z,103975.75
2023-05-02T06:09:37.369Z,103962.72
2023-05-02T06:14:40.931Z,104043.47
2023-05-02T06:19:46.228Z,104101.56
2023-05-02T06:24:48.961Z,104177.56
2023-05-02T06:29:52.365Z,104233.88
2023-05-02T06:34:56.536Z,104206.28
2023-05-02T06:39:59.358Z,104198.56
2023-05-02T06:45:02.221Z,104139.94
2023-05-02T06:50:07.363Z,104125.03
2023-05-02T06:55:10.543Z,104140.72
2023-05-02T07:00:14.596Z,104111.88
2023-05-02T07:05:18.647Z,104144.78
2023-05-02T07:10:21.319Z,104166.06
2023-05-02T07:15:24.027Z,104150.59
2023-05-02T07:20:28.167Z,104116.44
2023-05-02T07:25:30.993Z,104100.47
2023-05-02T07:30:33.914Z,104043.19
2023-05-02T07:35:38.127Z,104014.97
2023-05-02T07:40:40.753Z,103809.19
2023-05-02T07:45:43.546Z,103673.63
2023-05-02T07:50:47.601Z,103782.91
2023-05-02T07:55:50.315Z,103691.22
2023-05-02T08:00:53.038Z,103726.56
2023-05-02T08:05:57.341Z,103630.31
2023-05-02T08:11:00.079Z,103571.84
2023-05-02T08:16:03.017Z,103505.97
2023-05-02T08:21:07.256Z,103426.19
2023-05-02T08:26:10.370Z,103330.03
2023-05-02T08:31:13.340Z,103308.16
2023-05-02T08:36:18.370Z,103267.81
2023-05-02T08:41:21.391Z,103241.72
2023-05-02T08:46:24.792Z,103234.81
2023-05-02T08:51:29.910Z,103311.97
2023-05-02T08:56:33.823Z,103335.38
2023-05-02T09:01:37.250Z,103400.06
2023-05-02T09:06:41.682Z,103394.69
2023-05-02T09:11:48.148Z,103410.38
2023-05-02T09:16:50.661Z,103376.97
2023-05-02T09:22:01.062Z,103329.03
2023-05-02T09:27:05.409Z,103284.19
2023-05-02T09:32:08.224Z,103243.47
2023-05-02T09:37:13.485Z,103207.38
2023-05-02T09:42:32.653Z,103187.16
2023-05-02T09:47:35.374Z,103192.13
2023-05-02T09:52:39.493Z,103105.63
2023-05-02T09:57:42.225Z,102960.13
2023-05-02T10:02:45.169Z,102907.69
2023-05-02T10:07:49.574Z,102903.34
2023-05-02T10:12:54.347Z,102763.88
2023-05-02T10:18:00.100Z,102690.34
2023-05-02T10:23:04.507Z,102568.72
2023-05-02T10:28:07.379Z,102560.81
2023-05-02T10:33:10.195Z,102540.66
2023-05-02T10:38:15.190Z,102449.06
2023-05-02T10:43:18.095Z,102410.13
2023-05-02T10:48:22.256Z,102340.19
2023-05-02T10:53:28.484Z,102304.38
2023-05-02T10:58:32.056Z,102242.91
2023-05-02T11:03:57.235Z,102189.69
2023-05-02T11:09:35.323Z,102165.19
2023-05-02T11:14:47.320Z,102135.56
2023-05-02T11:20:29.694Z,102158.97
2023-05-02T11:25:35.994Z,102072.59
2023-05-02T11:30:44.031Z,102055.91
2023-05-02T11:35:48.855Z,102074.59
2023-05-02T11:41:04.081Z,102074.16
2023-05-02T11:46:07.856Z,102077.91
2023-05-02T11:51:10.592Z,101993.91
2023-05-02T11:56:14.688Z,102007.53
2023-05-02T12:01:17.786Z,101956.22
2023-05-02T12:06:20.807Z,101939.50
2023-05-02T12:11:25.051Z,101937.81
2023-05-02T12:16:27.873Z,101933.59
2023-05-02T12:21:32.879Z,101868.06
2023-05-02T12:26:37.120Z,101896.66
2023-05-02T12:31:40.017Z,101856.13
2023-05-02T12:36:45.295Z,101864.41
2023-05-02T12:41:49.439Z,101864.28
2023-05-02T12:47:01.289Z,101851.69
2023-05-02T12:52:04.159Z,101840.72
2023-05-02T12:57:09.284Z,101831.78
2023-05-02T13:02:12.047Z,101769.94
2023-05-02T13:07:14.777Z,101754.25
2023-05-02T13:12:19.143Z,101752.66
2023-05-02T13:17:22.516Z,101695.25
2023-05-02T13:22:25.285Z,101697.03
2023-05-02T13:27:29.353Z,101674.13
2023-05-02T13:32:32.162Z,101667.75
2023-05-02T13:37:34.947Z,101656.38
2023-05-02T13:42:38.985Z,101637.03
2023-05-02T13:47:41.834Z,101626.09
2023-05-02T13:52:45.469Z,101627.13
2023-05-02T13:57:51.072Z,101613.44
2023-05-02T14:02:53.802Z,101593.56
2023-05-02T14:07:56.708Z,101585.53
2023-05-02T14:13:00.718Z,101604.19
2023-05-02T14:18:03.427Z,101591.91
2023-05-02T14:23:07.602Z,101576.44
2023-05-02T14:28:11.847Z,101572.28
2023-05-02T14:33:14.636Z,101562.38
2023-05-02T14:38:17.325Z,101575.94
2023-05-02T14:43:21.337Z,101581.22
2023-05-02T14:48:24.005Z,101589.50
2023-05-02T14:53:26.956Z,101592.78
2023-05-02T14:58:31.022Z,101597.41
2023-05-02T15:03:33.952Z,101606.97
2023-05-02T15:08:37.395Z,101601.72
2023-05-02T15:13:42.286Z,101610.53
2023-05-02T15:18:45.320Z,101602.59
2023-05-02T15:23:48.178Z,101609.41
2023-05-02T15:28:52.362Z,101597.56
2023-05-02T15:33:55.097Z,101592.00
2023-05-02T15:38:57.802Z,101594.13
2023-05-02T15:44:02.387Z,101599.56
2023-05-02T15:49:05.086Z,101600.13
2023-05-02T15:54:07.766Z,101617.22
2023-05-02T15:59:11.830Z,101602.81
2023-05-02T16:04:15.410Z,101597.91
2023-05-02T16:09:18.142Z,101603.03
2023-05-02T16:14:23.900Z,101603.88
2023-05-02T16:19:26.832Z,101632.78
2023-05-02T16:24:29.556Z,101603.44
2023-05-02T16:29:33.733Z,101602.81
2023-05-02T16:34:37.186Z,101606.09
2023-05-02T16:39:40.223Z,101605.38
2023-05-02T16:44:44.314Z,101617.63
2023-05-02T16:49:47.360Z,101618.63
2023-05-02T16:54:50.174Z,101612.75
2023-05-02T16:59:54.263Z,101620.28
2023-05-02T17:04:56.983Z,101623.53
2023-05-02T17:09:59.808Z,101610.72
2023-05-02T17:15:04.707Z,101615.16
2023-05-02T17:20:08.218Z,101618.97
2023-05-02T17:25:11.733Z,101622.28
2023-05-02T17:30:16.303Z,101634.13
2023-05-02T17:35:19.004Z,101634.03
2023-05-02T17:40:22.124Z,101640.28
2023-05-02T17:45:28.775Z,101630.66
2023-05-02T17:50:32.884Z,101628.81
2023-05-02T17:55:37.844Z,101619.91
2023-05-02T18:00:41.990Z,101627.97
2023-05-02T18:05:47.272Z,101622.09
2023-05-02T18:10:50.018Z,101640.53
2023-05-02T18:15:57.899Z,101640.13
2023-05-02T18:21:00.880Z,101654.59
2023-05-02T18:26:03.966Z,101652.03
2023-05-02T18:31:08.094Z,101650.53
2023-05-02T18:36:11.135Z,101664.13
2023-05-02T18:41:14.085Z,101674.63
2023-05-02T18:46:18.497Z,101686.31
2023-05-02T18:51:21.675Z,101697.00
2023-05-02T18:56:25.367Z,101688.38
2023-05-02T19:01:29.540Z,101689.59
2023-05-02T19:06:33.504Z,101699.66
2023-05-02T19:11:36.875Z,101709.91
2023-05-02T19:16:41.332Z,101718.47
2023-05-02T19:21:44.114Z,101733.16
2023-05-02T19:26:46.855Z,101735.19
2023-05-02T19:31:51.063Z,101747.72
2023-05-02T19:36:53.817Z,101753.38
2023-05-02T19:41:56.611Z,101756.00
2023-05-02T19:47:00.832Z,101768.66
2023-05-02T19:52:03.702Z,101771.00
2023-05-02T19:57:06.422Z,101772.59
2023-05-02T20:02:11.438Z,101779.56
2023-05-02T20:07:14.207Z,101800.69
2023-05-02T20:12:16.990Z,101798.06
2023-05-02T20:17:21.395Z,101806.47
2023-05-02T20:22:24.251Z,101821.00
2023-05-02T20:27:27.079Z,101818.72
2023-05-02T20:32:31.247Z,101814.94
2023-05-02T20:37:34.057Z,101822.47
2023-05-02T20:42:38.829Z,101829.44
2023-05-02T20:47:42.893Z,101825.44
2023-05-02T20:52:45.838Z,101832.53
2023-05-02T20:57:51.136Z,101833.66
2023-05-02T21:02:55.333Z,101834.56
2023-05-02T21:07:58.115Z,101841.28
2023-05-02T21:13:00.835Z,101846.72
2023-05-02T21:18:05.865Z,101850.94
2023-05-02T21:23:11.020Z,101846.41
2023-05-02T21:28:14.646Z,101853.66
2023-05-02T21:33:18.814Z,101862.31
2023-05-02T21:38:21.523Z,101864.84
2023-05-02T21:43:24.231Z,101865.41
2023-05-02T21:48:28.450Z,101856.66
2023-05-02T21:53:31.148Z,101874.59
2023-05-02T21:58:34.055Z,101862.31
2023-05-02T22:03:39.012Z,101862.91
2023-05-02T22:08:41.765Z,101865.41
2023-05-02T22:13:44.461Z,101865.97
2023-05-02T22:18:49.388Z,101871.19
2023-05-02T22:23:52.090Z,101871.28
2023-05-02T22:28:54.772Z,101880.00
2023-05-02T22:33:58.788Z,101876.41
2023-05-02T22:39:01.584Z,101885.47
2023-05-02T22:44:04.321Z,101885.03
2023-05-02T22:49:10.276Z,101883.25
2023-05-02T22:54:14.921Z,101885.13
2023-05-02T22:59:17.688Z,101893.66
2023-05-02T23:04:21.750Z,101896.22
2023-05-02T23:09:24.549Z,101894.53
2023-05-02T23:14:27.282Z,101895.50
2023-05-02T23:19:31.512Z,101895.28
2023-05-02T23:24:34.212Z,101890.72
2023-05-02T23:29:36.937Z,101895.22
2023-05-02T23:34:41.300Z,101904.16
2023-05-02T23:39:44.388Z,101917.31
2023-05-02T23:44:47.094Z,101936.31
2023-05-02T23:49:51.158Z,101943.91
2023-05-02T23:54:53.844Z,101973.59
2023-05-02T23:59:56.666Z,102003.16
